KPSF/PSF METAR and TAF weather

Enter ICAO airport designator
Station Type Date Time Source
KPSF METAR 2019/07/20 04:54 UTC NOAA

KPSF 200454Z AUTO 00000KT 10SM CLR 26/21 A2987 RMK AO2 SLP080 T02610211 403220189


Station Type Date Time Source
KPSF Decoded METAR 2019/07/20 04:54 UTC NOAA

PITTSFIELD MUNICIPAL AIRPORT , MA, United States (KPSF) 42-26N 073-17W 355M
Jul 20, 2019 - 12:54 AM EDT / 2019.07.20 0454 UTC
Wind: Calm:0
Visibility: 10 mile(s):0
Sky conditions: clear
Temperature: 79.0 F (26.1 C)
Dew Point: 70.0 F (21.1 C)
Relative Humidity: 73%
Pressure (altimeter): 29.87 in. Hg (1011 hPa)
ob: KPSF 200454Z AUTO 00000KT 10SM CLR 26/21 A2987 RMK AO2 SLP080 T02610211 403220189
cycle: 5

Station Type Date Time Source
KPSF TAF 2019/07/20 06:36 UTC NOAA

TAF KPSF 200535Z 2006/2106 26004KT P6SM SCT015 BKN250
TEMPO 2009/2011 4SM BR BKN015
FM201500 26010KT P6SM SCT040
FM202300 25006KT P6SM SCT060 SCT250

Example: see airport list